createdAt,value
2024-05-09T00:03:26.955Z,72.74
2024-05-09T00:08:29.338Z,72.67
2024-05-09T00:13:31.366Z,74.40
2024-05-09T00:18:33.641Z,73.63
2024-05-09T00:23:35.925Z,73.17
2024-05-09T00:28:38.191Z,72.58
2024-05-09T00:33:40.454Z,73.17
2024-05-09T00:38:42.446Z,73.46
2024-05-09T00:43:44.340Z,73.29
2024-05-09T00:48:49.423Z,74.89
2024-05-09T00:53:51.424Z,71.12
2024-05-09T00:58:53.814Z,74.37
2024-05-09T01:03:56.451Z,74.85
2024-05-09T01:08:58.532Z,71.19
2024-05-09T01:14:00.620Z,73.93
2024-05-09T01:19:04.747Z,71.97
2024-05-09T01:24:07.084Z,71.89
2024-05-09T01:29:09.213Z,75.87
2024-05-09T01:34:11.340Z,72.54
2024-05-09T01:39:13.455Z,72.83
2024-05-09T01:44:15.361Z,77.36
2024-05-09T01:49:17.488Z,72.67
2024-05-09T01:54:19.468Z,72.43
2024-05-09T01:59:21.687Z,73.04
2024-05-09T02:04:23.983Z,72.87
2024-05-09T02:09:26.147Z,71.78
2024-05-09T02:14:28.154Z,72.46
2024-05-09T02:19:32.225Z,74.09
2024-05-09T02:24:35.377Z,74.22
2024-05-09T02:29:37.345Z,78.32
2024-05-09T02:34:39.403Z,74.34
2024-05-09T02:39:41.335Z,75.96
2024-05-09T02:44:43.432Z,73.00
2024-05-09T02:49:45.727Z,74.25
2024-05-09T02:54:47.988Z,75.58
2024-05-09T02:59:49.980Z,76.91
2024-05-09T03:04:51.927Z,73.53
2024-05-09T03:09:53.889Z,72.51
2024-05-09T03:14:55.802Z,72.50
2024-05-09T03:19:57.787Z,72.82
2024-05-09T03:25:00.115Z,75.05
2024-05-09T03:30:03.818Z,73.96
2024-05-09T03:35:07.842Z,76.70
2024-05-09T03:40:17.533Z,75.84
2024-05-09T03:45:22.731Z,72.76
2024-05-09T03:50:30.232Z,74.72
2024-05-09T03:55:36.281Z,73.61
2024-05-09T04:00:40.046Z,74.44
2024-05-09T04:05:44.033Z,74.24
2024-05-09T04:10:46.760Z,75.43
2024-05-09T04:15:48.671Z,75.29
2024-05-09T04:20:50.611Z,78.06
2024-05-09T04:25:52.778Z,76.72
2024-05-09T04:30:54.634Z,81.98
2024-05-09T04:35:56.609Z,77.46
2024-05-09T04:40:58.528Z,74.84
2024-05-09T04:46:00.397Z,78.77
2024-05-09T04:51:03.027Z,75.61
2024-05-09T04:56:05.377Z,76.29
2024-05-09T05:01:07.631Z,78.15
2024-05-09T05:06:09.520Z,75.34
2024-05-09T05:11:14.398Z,74.20
2024-05-09T05:16:16.560Z,74.23
2024-05-09T05:21:18.660Z,72.75
2024-05-09T05:26:20.905Z,75.59
2024-05-09T05:31:22.937Z,72.85
2024-05-09T05:36:25.016Z,81.33
2024-05-09T05:41:27.587Z,83.63
2024-05-09T05:46:29.674Z,76.31
2024-05-09T05:51:31.596Z,76.53
2024-05-09T05:56:34.744Z,73.62
2024-05-09T06:01:36.861Z,74.58
2024-05-09T06:06:38.765Z,73.56
2024-05-09T06:11:41.548Z,81.73
2024-05-09T06:16:43.936Z,83.23
2024-05-09T06:21:46.128Z,79.30
2024-05-09T06:26:48.084Z,74.60
2024-05-09T06:31:49.969Z,80.00
2024-05-09T06:36:52.099Z,78.79
2024-05-09T06:41:53.939Z,78.14
2024-05-09T06:46:58.180Z,71.20
2024-05-09T06:52:01.302Z,70.44
2024-05-09T06:57:03.266Z,69.47
2024-05-09T07:02:05.172Z,67.96
2024-05-09T07:07:09.515Z,70.42
2024-05-09T07:12:11.742Z,72.55
2024-05-09T07:17:14.711Z,67.93
2024-05-09T07:22:16.788Z,70.49
2024-05-09T07:27:18.789Z,68.16
2024-05-09T07:32:21.101Z,67.18
2024-05-09T07:37:23.761Z,64.65
2024-05-09T07:42:25.617Z,65.57
2024-05-09T07:53:32.759Z,70.89
2024-05-09T07:57:54.653Z,65.01
2024-05-09T08:02:56.694Z,63.38
2024-05-09T08:07:58.656Z,61.91
2024-05-09T08:13:00.647Z,59.62
2024-05-09T08:18:02.896Z,60.88
2024-05-09T08:23:04.987Z,60.34
2024-05-09T08:28:07.337Z,57.20
2024-05-09T08:33:09.444Z,55.82
2024-05-09T08:38:11.694Z,55.46
2024-05-09T08:43:14.492Z,55.03
2024-05-09T08:48:18.370Z,56.62
2024-05-09T08:53:20.367Z,55.26
2024-05-09T08:58:22.419Z,49.23
2024-05-09T09:03:27.009Z,44.41
2024-05-09T09:08:29.381Z,42.98
2024-05-09T09:13:31.500Z,44.44
2024-05-09T09:18:34.693Z,45.33
2024-05-09T09:23:36.946Z,44.18
2024-05-09T09:28:40.816Z,44.29
2024-05-09T09:33:43.423Z,43.49
2024-05-09T09:38:47.018Z,44.26
2024-05-09T09:43:49.102Z,45.53
2024-05-09T09:48:51.422Z,44.47
2024-05-09T09:53:53.772Z,43.49
2024-05-09T09:58:56.312Z,43.98
2024-05-09T10:03:58.388Z,45.14
2024-05-09T10:09:00.890Z,43.73
2024-05-09T10:14:03.021Z,42.54
2024-05-09T10:19:05.155Z,43.03
2024-05-09T10:24:07.547Z,44.57
2024-05-09T10:29:18.236Z,46.50
2024-05-09T10:34:23.423Z,46.15
2024-05-09T10:39:26.012Z,46.53
2024-05-09T10:44:28.110Z,45.22
2024-05-09T10:49:30.492Z,43.53
2024-05-09T10:54:36.688Z,42.59
2024-05-09T10:59:40.040Z,41.36
2024-05-09T11:04:42.560Z,44.98
2024-05-09T11:09:52.681Z,44.41
2024-05-09T11:14:55.118Z,45.03
2024-05-09T11:19:57.142Z,42.77
2024-05-09T11:25:03.100Z,44.10
2024-05-09T11:30:07.347Z,45.73
2024-05-09T11:35:13.384Z,40.15
2024-05-09T11:40:21.468Z,43.74
2024-05-09T11:45:27.680Z,42.16
2024-05-09T11:50:34.940Z,42.45
2024-05-09T11:55:38.476Z,42.94
2024-05-09T12:00:40.603Z,44.91
2024-05-09T12:05:43.966Z,40.46
2024-05-09T12:10:47.124Z,38.68
2024-05-09T12:15:49.628Z,40.50
2024-05-09T12:20:52.320Z,37.96
2024-05-09T12:25:54.405Z,39.57
2024-05-09T12:30:56.502Z,39.68
2024-05-09T12:35:58.626Z,35.87
2024-05-09T12:41:01.006Z,38.07
2024-05-09T12:46:04.494Z,37.68
2024-05-09T12:51:06.799Z,35.67
2024-05-09T12:56:11.634Z,33.96
2024-05-09T13:01:14.011Z,37.76
2024-05-09T13:06:16.101Z,37.77
2024-05-09T13:11:18.368Z,35.86
2024-05-09T13:16:36.849Z,37.52
2024-05-09T13:21:39.272Z,37.46
2024-05-09T13:26:44.550Z,36.00
2024-05-09T13:31:46.495Z,36.51
2024-05-09T13:36:48.595Z,35.86
2024-05-09T13:41:53.755Z,35.69
2024-05-09T13:46:55.827Z,35.53
2024-05-09T13:51:58.042Z,35.47
2024-05-09T13:57:03.567Z,31.84
2024-05-09T14:02:06.155Z,32.59
2024-05-09T14:07:13.439Z,35.67
2024-05-09T14:12:15.978Z,33.86
2024-05-09T14:17:18.293Z,32.98
2024-05-09T14:22:20.803Z,33.12
2024-05-09T14:27:22.905Z,32.55
2024-05-09T14:32:25.374Z,34.51
2024-05-09T14:37:31.497Z,33.71
2024-05-09T14:42:36.389Z,34.47
2024-05-09T14:47:41.637Z,35.58
2024-05-09T14:52:43.945Z,33.96
2024-05-09T14:57:46.073Z,31.84
2024-05-09T15:02:51.384Z,30.61
2024-05-09T15:07:53.920Z,33.35
2024-05-09T15:13:00.428Z,31.67
2024-05-09T15:18:03.834Z,33.28
2024-05-09T15:23:07.000Z,33.36
2024-05-09T15:28:12.745Z,32.03
2024-05-09T15:33:15.152Z,31.16
2024-05-09T15:38:18.650Z,30.85
2024-05-09T15:43:21.028Z,32.89
2024-05-09T15:48:23.263Z,32.13
2024-05-09T15:53:25.334Z,32.28
2024-05-09T15:58:28.828Z,31.38
2024-05-09T16:03:31.125Z,33.31
2024-05-09T16:08:34.534Z,32.76
2024-05-09T16:13:36.532Z,31.65
2024-05-09T16:18:38.854Z,34.16
2024-05-09T16:23:41.079Z,33.91
2024-05-09T16:28:43.141Z,32.63
2024-05-09T16:33:47.211Z,32.77
2024-05-09T16:38:49.278Z,33.16
2024-05-09T16:43:51.168Z,33.51
2024-05-09T16:48:53.499Z,32.84
2024-05-09T16:53:55.577Z,33.89
2024-05-09T16:58:57.601Z,33.08
2024-05-09T17:03:59.762Z,33.56
2024-05-09T17:09:08.622Z,33.12
2024-05-09T17:14:13.765Z,33.64
2024-05-09T17:19:15.892Z,33.62
2024-05-09T17:24:17.861Z,33.56
2024-05-09T17:29:21.875Z,33.83
2024-05-09T17:34:25.538Z,34.22
2024-05-09T17:39:27.506Z,34.39
2024-05-09T17:44:29.572Z,34.27
2024-05-09T17:49:31.607Z,34.77
2024-05-09T17:54:33.604Z,35.21
2024-05-09T17:59:35.478Z,35.07
2024-05-09T18:04:37.412Z,35.60
2024-05-09T18:09:39.752Z,36.25
2024-05-09T18:14:41.593Z,36.07
2024-05-09T18:19:43.565Z,37.44
2024-05-09T18:24:46.041Z,38.39
2024-05-09T18:29:48.001Z,38.40
2024-05-09T18:34:50.407Z,38.98
2024-05-09T18:39:52.777Z,40.15
2024-05-09T18:44:55.311Z,40.81
2024-05-09T18:49:58.164Z,40.01
2024-05-09T18:55:00.634Z,44.02
2024-05-09T19:00:02.823Z,43.44
2024-05-09T19:05:06.161Z,43.22
2024-05-09T19:10:21.560Z,43.82
2024-05-09T19:15:25.320Z,42.92
2024-05-09T19:20:33.376Z,43.50
2024-05-09T19:25:37.991Z,43.95
2024-05-09T19:30:43.093Z,44.84
2024-05-09T19:35:45.952Z,44.51
2024-05-09T19:40:48.316Z,45.95
2024-05-09T19:45:51.412Z,45.71
2024-05-09T19:50:54.738Z,45.93
2024-05-09T19:55:58.962Z,47.07
2024-05-09T20:01:02.123Z,46.17
2024-05-09T20:06:04.738Z,46.77
2024-05-09T20:11:06.699Z,46.27
2024-05-09T20:16:09.467Z,45.80
2024-05-09T20:21:12.404Z,47.10
2024-05-09T20:26:14.461Z,47.61
2024-05-09T20:31:20.691Z,47.61
2024-05-09T20:36:22.978Z,46.72
2024-05-09T20:41:25.722Z,47.33
2024-05-09T20:46:28.073Z,47.06
2024-05-09T20:51:30.435Z,46.88
2024-05-09T20:56:32.452Z,47.69
2024-05-09T21:01:34.552Z,47.49
2024-05-09T21:06:36.516Z,48.25
2024-05-09T21:11:38.478Z,50.62
2024-05-09T21:16:40.682Z,48.83
2024-05-09T21:21:42.895Z,48.39
2024-05-09T21:26:44.808Z,50.00
2024-05-09T21:31:46.643Z,49.80
2024-05-09T21:36:48.672Z,50.56
2024-05-09T21:41:51.480Z,50.22
2024-05-09T21:46:53.578Z,49.13
2024-05-09T21:51:55.736Z,50.39
2024-05-09T21:56:57.887Z,51.11
2024-05-09T22:02:00.123Z,48.68
2024-05-09T22:07:02.139Z,49.77
2024-05-09T22:12:04.958Z,54.22
2024-05-09T22:17:06.990Z,50.04
2024-05-09T22:22:08.919Z,53.69
2024-05-09T22:27:12.125Z,51.47
2024-05-09T22:32:14.106Z,51.37
2024-05-09T22:37:16.340Z,52.46
2024-05-09T22:42:18.444Z,51.95
2024-05-09T22:47:20.427Z,51.37
2024-05-09T22:52:22.716Z,56.44
2024-05-09T22:57:24.871Z,56.02
2024-05-09T23:02:27.099Z,55.15
2024-05-09T23:07:29.095Z,54.68
2024-05-09T23:12:31.013Z,55.89
2024-05-09T23:17:32.902Z,52.67
2024-05-09T23:22:35.085Z,52.39
2024-05-09T23:27:37.528Z,53.85
2024-05-09T23:32:39.645Z,56.17
2024-05-09T23:37:42.078Z,53.17
2024-05-09T23:42:44.281Z,53.85
2024-05-09T23:47:46.957Z,51.14
2024-05-09T23:52:48.967Z,50.67
2024-05-09T23:57:50.845Z,52.91
